sensor_id;sensor_type;location;lat;lon;timestamp;temperature;humidity
67974;DHT22;54756;51.140;6.952;2022-12-31T00:00:10;12.10;94.90
67974;DHT22;54756;51.140;6.952;2022-12-31T00:02:11;12.10;94.90
67974;DHT22;54756;51.140;6.952;2022-12-31T00:04:12;12.10;95.00
67974;DHT22;54756;51.140;6.952;2022-12-31T00:06:19;12.10;95.00
67974;DHT22;54756;51.140;6.952;2022-12-31T00:08:20;12.10;95.00
67974;DHT22;54756;51.140;6.952;2022-12-31T00:10:21;12.10;95.00
67974;DHT22;54756;51.140;6.952;2022-12-31T00:12:21;12.10;95.00
67974;DHT22;54756;51.140;6.952;2022-12-31T00:14:22;12.10;95.00
67974;DHT22;54756;51.140;6.952;2022-12-31T00:16:36;12.10;95.00
67974;DHT22;54756;51.140;6.952;2022-12-31T00:18:37;12.10;95.20
67974;DHT22;54756;51.140;6.952;2022-12-31T00:20:39;12.10;95.20
67974;DHT22;54756;51.140;6.952;2022-12-31T00:22:41;12.10;95.30
67974;DHT22;54756;51.140;6.952;2022-12-31T00:24:41;12.10;95.30
67974;DHT22;54756;51.140;6.952;2022-12-31T00:26:42;12.10;95.20
67974;DHT22;54756;51.140;6.952;2022-12-31T00:28:43;12.10;95.20
67974;DHT22;54756;51.140;6.952;2022-12-31T00:30:44;12.10;95.20
67974;DHT22;54756;51.140;6.952;2022-12-31T00:32:44;12.10;95.10
67974;DHT22;54756;51.140;6.952;2022-12-31T00:34:45;12.10;95.10
67974;DHT22;54756;51.140;6.952;2022-12-31T00:36:45;12.10;95.30
67974;DHT22;54756;51.140;6.952;2022-12-31T00:38:48;12.10;95.30
67974;DHT22;54756;51.140;6.952;2022-12-31T00:40:49;12.10;95.40
67974;DHT22;54756;51.140;6.952;2022-12-31T00:42:49;12.10;95.30
67974;DHT22;54756;51.140;6.952;2022-12-31T00:44:50;12.10;95.40
67974;DHT22;54756;51.140;6.952;2022-12-31T00:46:50;12.10;95.70
67974;DHT22;54756;51.140;6.952;2022-12-31T00:48:51;12.10;95.40
67974;DHT22;54756;51.140;6.952;2022-12-31T00:50:53;12.10;95.40
67974;DHT22;54756;51.140;6.952;2022-12-31T00:52:54;12.10;95.40
67974;DHT22;54756;51.140;6.952;2022-12-31T00:54:55;12.20;95.50
67974;DHT22;54756;51.140;6.952;2022-12-31T00:56:57;12.20;95.50
67974;DHT22;54756;51.140;6.952;2022-12-31T00:58:58;12.20;95.50
67974;DHT22;54756;51.140;6.952;2022-12-31T01:01:11;12.20;95.60
67974;DHT22;54756;51.140;6.952;2022-12-31T01:03:11;12.30;95.70
67974;DHT22;54756;51.140;6.952;2022-12-31T01:05:12;12.30;95.70
67974;DHT22;54756;51.140;6.952;2022-12-31T01:07:12;12.30;95.70
67974;DHT22;54756;51.140;6.952;2022-12-31T01:09:14;12.40;95.70
67974;DHT22;54756;51.140;6.952;2022-12-31T01:11:16;12.40;95.70
67974;DHT22;54756;51.140;6.952;2022-12-31T01:13:23;12.40;95.60
67974;DHT22;54756;51.140;6.952;2022-12-31T01:15:23;12.40;95.60
67974;DHT22;54756;51.140;6.952;2022-12-31T01:17:24;12.40;95.50
67974;DHT22;54756;51.140;6.952;2022-12-31T01:19:27;12.50;95.60
67974;DHT22;54756;51.140;6.952;2022-12-31T01:21:28;12.50;95.60
67974;DHT22;54756;51.140;6.952;2022-12-31T01:23:30;12.50;95.60
67974;DHT22;54756;51.140;6.952;2022-12-31T01:25:34;12.50;95.50
67974;DHT22;54756;51.140;6.952;2022-12-31T01:27:35;12.50;95.50
67974;DHT22;54756;51.140;6.952;2022-12-31T01:29:36;12.50;95.50
67974;DHT22;54756;51.140;6.952;2022-12-31T01:31:37;12.50;95.50
67974;DHT22;54756;51.140;6.952;2022-12-31T01:33:38;12.60;95.60
67974;DHT22;54756;51.140;6.952;2022-12-31T01:35:39;12.60;95.60
67974;DHT22;54756;51.140;6.952;2022-12-31T01:37:39;12.70;95.60
67974;DHT22;54756;51.140;6.952;2022-12-31T01:39:40;12.60;95.40
67974;DHT22;54756;51.140;6.952;2022-12-31T01:41:43;12.70;95.40
67974;DHT22;54756;51.140;6.952;2022-12-31T01:43:46;12.80;95.40
67974;DHT22;54756;51.140;6.952;2022-12-31T01:45:51;12.80;95.30
67974;DHT22;54756;51.140;6.952;2022-12-31T01:47:55;12.80;95.30
67974;DHT22;54756;51.140;6.952;2022-12-31T01:50:09;12.90;95.30
67974;DHT22;54756;51.140;6.952;2022-12-31T01:54:18;13.10;95.20
67974;DHT22;54756;51.140;6.952;2022-12-31T01:56:22;13.10;95.10
67974;DHT22;54756;51.140;6.952;2022-12-31T01:58:37;13.20;95.00
67974;DHT22;54756;51.140;6.952;2022-12-31T02:00:38;13.30;94.80
67974;DHT22;54756;51.140;6.952;2022-12-31T02:02:39;13.50;94.60
67974;DHT22;54756;51.140;6.952;2022-12-31T02:04:39;13.60;94.30
67974;DHT22;54756;51.140;6.952;2022-12-31T02:06:47;13.70;94.20
67974;DHT22;54756;51.140;6.952;2022-12-31T02:08:49;13.80;94.00
67974;DHT22;54756;51.140;6.952;2022-12-31T02:10:50;13.80;93.80
67974;DHT22;54756;51.140;6.952;2022-12-31T02:12:51;13.90;93.70
67974;DHT22;54756;51.140;6.952;2022-12-31T02:14:52;13.90;93.40
67974;DHT22;54756;51.140;6.952;2022-12-31T02:19:06;14.00;93.20
67974;DHT22;54756;51.140;6.952;2022-12-31T02:26:14;14.20;92.90
67974;DHT22;54756;51.140;6.952;2022-12-31T02:30:33;14.40;92.50
67974;DHT22;54756;51.140;6.952;2022-12-31T02:34:53;14.50;92.00
67974;DHT22;54756;51.140;6.952;2022-12-31T02:36:59;14.50;91.80
67974;DHT22;54756;51.140;6.952;2022-12-31T02:39:02;14.60;91.80
67974;DHT22;54756;51.140;6.952;2022-12-31T02:41:03;14.60;91.80
67974;DHT22;54756;51.140;6.952;2022-12-31T02:43:04;14.60;91.70
67974;DHT22;54756;51.140;6.952;2022-12-31T02:45:05;14.60;91.80
67974;DHT22;54756;51.140;6.952;2022-12-31T02:49:18;14.50;91.80
67974;DHT22;54756;51.140;6.952;2022-12-31T02:56:23;14.70;90.90
67974;DHT22;54756;51.140;6.952;2022-12-31T03:01:19;14.90;89.90
67974;DHT22;54756;51.140;6.952;2022-12-31T03:03:41;15.00;89.00
67974;DHT22;54756;51.140;6.952;2022-12-31T03:05:42;15.10;88.20
67974;DHT22;54756;51.140;6.952;2022-12-31T03:07:44;15.20;87.70
67974;DHT22;54756;51.140;6.952;2022-12-31T03:09:45;15.20;86.80
67974;DHT22;54756;51.140;6.952;2022-12-31T03:11:46;15.30;86.60
67974;DHT22;54756;51.140;6.952;2022-12-31T03:14:05;15.40;85.40
67974;DHT22;54756;51.140;6.952;2022-12-31T03:16:05;15.40;84.40
67974;DHT22;54756;51.140;6.952;2022-12-31T03:18:12;15.40;84.40
67974;DHT22;54756;51.140;6.952;2022-12-31T03:20:13;15.40;84.70
67974;DHT22;54756;51.140;6.952;2022-12-31T03:22:34;15.50;84.00
67974;DHT22;54756;51.140;6.952;2022-12-31T03:24:35;15.70;83.80
67974;DHT22;54756;51.140;6.952;2022-12-31T03:26:54;15.80;83.10
67974;DHT22;54756;51.140;6.952;2022-12-31T03:28:55;15.90;81.50
67974;DHT22;54756;51.140;6.952;2022-12-31T03:30:58;16.00;80.50
67974;DHT22;54756;51.140;6.952;2022-12-31T03:33:00;16.10;80.10
67974;DHT22;54756;51.140;6.952;2022-12-31T03:35:01;16.20;79.80
67974;DHT22;54756;51.140;6.952;2022-12-31T03:37:01;16.20;79.10
67974;DHT22;54756;51.140;6.952;2022-12-31T03:39:02;16.20;79.30
67974;DHT22;54756;51.140;6.952;2022-12-31T03:41:02;16.30;78.80
67974;DHT22;54756;51.140;6.952;2022-12-31T03:43:03;16.30;79.20
67974;DHT22;54756;51.140;6.952;2022-12-31T03:45:04;16.30;79.20
67974;DHT22;54756;51.140;6.952;2022-12-31T03:47:05;16.30;78.90
67974;DHT22;54756;51.140;6.952;2022-12-31T03:49:05;16.30;79.30
67974;DHT22;54756;51.140;6.952;2022-12-31T03:51:06;16.30;79.10
67974;DHT22;54756;51.140;6.952;2022-12-31T03:53:06;16.30;78.70
67974;DHT22;54756;51.140;6.952;2022-12-31T03:55:08;16.20;78.80
67974;DHT22;54756;51.140;6.952;2022-12-31T03:57:09;16.10;79.70
67974;DHT22;54756;51.140;6.952;2022-12-31T03:59:09;16.00;80.30
67974;DHT22;54756;51.140;6.952;2022-12-31T04:01:10;16.00;80.80
67974;DHT22;54756;51.140;6.952;2022-12-31T04:03:10;16.00;80.70
67974;DHT22;54756;51.140;6.952;2022-12-31T04:05:11;16.00;80.80
67974;DHT22;54756;51.140;6.952;2022-12-31T04:07:12;16.00;80.80
67974;DHT22;54756;51.140;6.952;2022-12-31T04:09:13;16.10;80.60
67974;DHT22;54756;51.140;6.952;2022-12-31T04:11:13;16.10;80.20
67974;DHT22;54756;51.140;6.952;2022-12-31T04:13:14;16.10;80.10
67974;DHT22;54756;51.140;6.952;2022-12-31T04:15:17;16.20;79.50
67974;DHT22;54756;51.140;6.952;2022-12-31T04:17:18;16.20;79.70
67974;DHT22;54756;51.140;6.952;2022-12-31T04:19:19;16.20;79.10
67974;DHT22;54756;51.140;6.952;2022-12-31T04:21:19;16.20;78.80
67974;DHT22;54756;51.140;6.952;2022-12-31T04:23:20;16.20;78.20
67974;DHT22;54756;51.140;6.952;2022-12-31T04:25:20;16.30;78.10
67974;DHT22;54756;51.140;6.952;2022-12-31T04:27:21;16.30;77.60
67974;DHT22;54756;51.140;6.952;2022-12-31T04:29:21;16.30;77.10
67974;DHT22;54756;51.140;6.952;2022-12-31T04:31:22;16.40;77.20
67974;DHT22;54756;51.140;6.952;2022-12-31T04:33:22;16.30;76.80
67974;DHT22;54756;51.140;6.952;2022-12-31T04:35:23;16.40;76.20
67974;DHT22;54756;51.140;6.952;2022-12-31T04:37:23;16.50;76.20
67974;DHT22;54756;51.140;6.952;2022-12-31T04:39:24;16.50;76.80
67974;DHT22;54756;51.140;6.952;2022-12-31T04:41:24;16.50;76.00
67974;DHT22;54756;51.140;6.952;2022-12-31T04:43:26;16.50;75.90
67974;DHT22;54756;51.140;6.952;2022-12-31T04:45:27;16.50;75.80
67974;DHT22;54756;51.140;6.952;2022-12-31T04:47:27;16.50;76.30
67974;DHT22;54756;51.140;6.952;2022-12-31T04:49:28;16.40;75.80
67974;DHT22;54756;51.140;6.952;2022-12-31T04:51:29;16.50;76.00
67974;DHT22;54756;51.140;6.952;2022-12-31T04:53:30;16.50;75.70
67974;DHT22;54756;51.140;6.952;2022-12-31T04:55:31;16.50;75.90
67974;DHT22;54756;51.140;6.952;2022-12-31T04:57:32;16.50;75.80
67974;DHT22;54756;51.140;6.952;2022-12-31T04:59:33;16.50;75.20
67974;DHT22;54756;51.140;6.952;2022-12-31T05:01:33;16.50;75.00
67974;DHT22;54756;51.140;6.952;2022-12-31T05:03:36;16.60;74.50
67974;DHT22;54756;51.140;6.952;2022-12-31T05:05:39;16.60;74.10
67974;DHT22;54756;51.140;6.952;2022-12-31T05:07:42;16.70;74.20
67974;DHT22;54756;51.140;6.952;2022-12-31T05:09:42;16.70;73.50
67974;DHT22;54756;51.140;6.952;2022-12-31T05:11:43;16.70;73.90
67974;DHT22;54756;51.140;6.952;2022-12-31T05:13:43;16.70;73.50
67974;DHT22;54756;51.140;6.952;2022-12-31T05:15:45;16.70;73.50
67974;DHT22;54756;51.140;6.952;2022-12-31T05:17:46;16.70;73.30
67974;DHT22;54756;51.140;6.952;2022-12-31T05:19:46;16.70;73.50
67974;DHT22;54756;51.140;6.952;2022-12-31T05:21:47;16.70;73.50
67974;DHT22;54756;51.140;6.952;2022-12-31T05:24:07;16.70;73.50
67974;DHT22;54756;51.140;6.952;2022-12-31T05:26:08;16.70;73.20
67974;DHT22;54756;51.140;6.952;2022-12-31T05:28:09;16.70;73.20
67974;DHT22;54756;51.140;6.952;2022-12-31T05:30:10;16.70;73.20
67974;DHT22;54756;51.140;6.952;2022-12-31T05:32:11;16.70;73.30
67974;DHT22;54756;51.140;6.952;2022-12-31T05:34:11;16.70;73.00
67974;DHT22;54756;51.140;6.952;2022-12-31T05:36:12;16.70;73.20
67974;DHT22;54756;51.140;6.952;2022-12-31T05:38:13;16.70;73.10
67974;DHT22;54756;51.140;6.952;2022-12-31T05:40:14;16.70;73.20
67974;DHT22;54756;51.140;6.952;2022-12-31T05:42:15;16.70;73.40
67974;DHT22;54756;51.140;6.952;2022-12-31T05:44:15;16.70;73.40
67974;DHT22;54756;51.140;6.952;2022-12-31T05:46:16;16.70;73.00
67974;DHT22;54756;51.140;6.952;2022-12-31T05:48:16;16.80;72.80
67974;DHT22;54756;51.140;6.952;2022-12-31T05:50:17;16.80;72.80
67974;DHT22;54756;51.140;6.952;2022-12-31T05:52:18;16.80;72.80
67974;DHT22;54756;51.140;6.952;2022-12-31T05:54:19;16.90;72.60
67974;DHT22;54756;51.140;6.952;2022-12-31T05:56:19;16.90;73.00
67974;DHT22;54756;51.140;6.952;2022-12-31T05:58:20;16.80;72.70
67974;DHT22;54756;51.140;6.952;2022-12-31T06:00:20;16.80;73.00
67974;DHT22;54756;51.140;6.952;2022-12-31T06:02:22;16.80;73.80
67974;DHT22;54756;51.140;6.952;2022-12-31T06:04:22;16.80;72.90
67974;DHT22;54756;51.140;6.952;2022-12-31T06:06:23;16.90;73.10
67974;DHT22;54756;51.140;6.952;2022-12-31T06:08:24;16.90;73.10
67974;DHT22;54756;51.140;6.952;2022-12-31T06:10:24;16.90;73.30
67974;DHT22;54756;51.140;6.952;2022-12-31T06:12:25;16.90;73.60
67974;DHT22;54756;51.140;6.952;2022-12-31T06:14:25;16.80;73.70
67974;DHT22;54756;51.140;6.952;2022-12-31T06:16:26;16.80;73.80
67974;DHT22;54756;51.140;6.952;2022-12-31T06:18:26;16.80;74.30
67974;DHT22;54756;51.140;6.952;2022-12-31T06:20:27;16.80;74.30
67974;DHT22;54756;51.140;6.952;2022-12-31T06:22:27;16.70;74.30
67974;DHT22;54756;51.140;6.952;2022-12-31T06:24:28;16.80;74.30
67974;DHT22;54756;51.140;6.952;2022-12-31T06:26:28;16.80;74.30
67974;DHT22;54756;51.140;6.952;2022-12-31T06:28:29;16.80;74.20
67974;DHT22;54756;51.140;6.952;2022-12-31T06:30:30;16.80;74.20
67974;DHT22;54756;51.140;6.952;2022-12-31T06:32:31;16.80;73.60
67974;DHT22;54756;51.140;6.952;2022-12-31T06:34:31;16.80;73.10
67974;DHT22;54756;51.140;6.952;2022-12-31T06:36:32;16.90;73.10
67974;DHT22;54756;51.140;6.952;2022-12-31T06:38:35;16.90;73.10
67974;DHT22;54756;51.140;6.952;2022-12-31T06:40:36;16.90;73.00
67974;DHT22;54756;51.140;6.952;2022-12-31T06:42:37;16.90;72.40
67974;DHT22;54756;51.140;6.952;2022-12-31T06:44:38;16.90;71.90
67974;DHT22;54756;51.140;6.952;2022-12-31T06:46:38;17.00;71.70
67974;DHT22;54756;51.140;6.952;2022-12-31T06:48:39;17.00;71.30
67974;DHT22;54756;51.140;6.952;2022-12-31T06:50:42;17.00;70.80
67974;DHT22;54756;51.140;6.952;2022-12-31T06:52:42;17.00;70.70
67974;DHT22;54756;51.140;6.952;2022-12-31T06:54:43;17.10;70.40
67974;DHT22;54756;51.140;6.952;2022-12-31T06:56:44;17.10;69.80
67974;DHT22;54756;51.140;6.952;2022-12-31T06:58:45;17.10;70.00
67974;DHT22;54756;51.140;6.952;2022-12-31T07:03:37;17.10;69.90
67974;DHT22;54756;51.140;6.952;2022-12-31T07:06:01;17.10;69.60
67974;DHT22;54756;51.140;6.952;2022-12-31T07:08:20;17.10;70.10
67974;DHT22;54756;51.140;6.952;2022-12-31T07:20:11;17.10;69.70
67974;DHT22;54756;51.140;6.952;2022-12-31T07:21:52;17.20;69.70
67974;DHT22;54756;51.140;6.952;2022-12-31T07:23:55;17.10;69.70
67974;DHT22;54756;51.140;6.952;2022-12-31T07:26:12;17.10;69.60
67974;DHT22;54756;51.140;6.952;2022-12-31T07:30:29;17.10;69.50
67974;DHT22;54756;51.140;6.952;2022-12-31T07:32:36;17.10;69.60
67974;DHT22;54756;51.140;6.952;2022-12-31T07:35:01;17.10;69.70
67974;DHT22;54756;51.140;6.952;2022-12-31T07:37:18;17.10;69.60
67974;DHT22;54756;51.140;6.952;2022-12-31T07:39:35;17.10;69.40
67974;DHT22;54756;51.140;6.952;2022-12-31T07:42:10;17.10;69.00
67974;DHT22;54756;51.140;6.952;2022-12-31T07:47:20;17.10;68.30
67974;DHT22;54756;51.140;6.952;2022-12-31T07:49:13;17.10;68.40
67974;DHT22;54756;51.140;6.952;2022-12-31T07:51:14;17.10;67.60
67974;DHT22;54756;51.140;6.952;2022-12-31T07:53:15;17.20;67.30
67974;DHT22;54756;51.140;6.952;2022-12-31T07:55:15;17.20;66.80
67974;DHT22;54756;51.140;6.952;2022-12-31T07:57:17;17.20;66.30
67974;DHT22;54756;51.140;6.952;2022-12-31T08:07:12;17.30;64.70
67974;DHT22;54756;51.140;6.952;2022-12-31T08:11:58;17.30;64.60
67974;DHT22;54756;51.140;6.952;2022-12-31T08:14:02;17.30;63.40
67974;DHT22;54756;51.140;6.952;2022-12-31T08:16:03;17.40;64.00
67974;DHT22;54756;51.140;6.952;2022-12-31T08:18:04;17.40;63.50
67974;DHT22;54756;51.140;6.952;2022-12-31T08:20:06;17.40;63.40
67974;DHT22;54756;51.140;6.952;2022-12-31T08:27:07;17.40;62.90
67974;DHT22;54756;51.140;6.952;2022-12-31T08:31:46;17.50;62.70
67974;DHT22;54756;51.140;6.952;2022-12-31T08:38:35;17.50;62.50
67974;DHT22;54756;51.140;6.952;2022-12-31T08:49:02;17.50;62.50
67974;DHT22;54756;51.140;6.952;2022-12-31T08:51:03;17.50;62.20
67974;DHT22;54756;51.140;6.952;2022-12-31T08:53:04;17.50;62.70
67974;DHT22;54756;51.140;6.952;2022-12-31T08:55:05;17.50;61.50
67974;DHT22;54756;51.140;6.952;2022-12-31T08:59:49;17.60;62.00
67974;DHT22;54756;51.140;6.952;2022-12-31T09:02:10;17.60;62.10
67974;DHT22;54756;51.140;6.952;2022-12-31T09:06:31;17.60;61.40
67974;DHT22;54756;51.140;6.952;2022-12-31T09:13:31;17.70;60.90
67974;DHT22;54756;51.140;6.952;2022-12-31T09:15:55;17.70;60.00
67974;DHT22;54756;51.140;6.952;2022-12-31T09:17:57;17.70;60.00
67974;DHT22;54756;51.140;6.952;2022-12-31T09:19:58;17.80;60.80
67974;DHT22;54756;51.140;6.952;2022-12-31T09:21:59;17.80;60.80
67974;DHT22;54756;51.140;6.952;2022-12-31T09:23:59;17.70;60.10
67974;DHT22;54756;51.140;6.952;2022-12-31T09:26:27;17.80;61.20
67974;DHT22;54756;51.140;6.952;2022-12-31T09:28:42;17.70;60.70
67974;DHT22;54756;51.140;6.952;2022-12-31T09:30:57;17.70;61.50
67974;DHT22;54756;51.140;6.952;2022-12-31T09:33:03;17.70;61.20
67974;DHT22;54756;51.140;6.952;2022-12-31T09:37:19;17.80;61.10
67974;DHT22;54756;51.140;6.952;2022-12-31T09:39:40;17.80;60.20
67974;DHT22;54756;51.140;6.952;2022-12-31T09:41:49;17.90;59.10
67974;DHT22;54756;51.140;6.952;2022-12-31T09:44:16;18.00;58.90
67974;DHT22;54756;51.140;6.952;2022-12-31T09:49:11;18.00;58.40
67974;DHT22;54756;51.140;6.952;2022-12-31T09:51:20;18.00;58.00
67974;DHT22;54756;51.140;6.952;2022-12-31T09:53:37;18.00;57.90
67974;DHT22;54756;51.140;6.952;2022-12-31T09:56:21;18.10;57.80
67974;DHT22;54756;51.140;6.952;2022-12-31T10:00:42;18.10;56.60
67974;DHT22;54756;51.140;6.952;2022-12-31T10:03:16;18.10;57.20
67974;DHT22;54756;51.140;6.952;2022-12-31T10:05:36;18.10;57.50
67974;DHT22;54756;51.140;6.952;2022-12-31T10:10:05;18.10;58.00
67974;DHT22;54756;51.140;6.952;2022-12-31T10:12:35;18.10;56.90
67974;DHT22;54756;51.140;6.952;2022-12-31T10:17:38;18.10;56.50
67974;DHT22;54756;51.140;6.952;2022-12-31T10:27:25;18.40;55.00
67974;DHT22;54756;51.140;6.952;2022-12-31T10:29:47;18.40;55.40
67974;DHT22;54756;51.140;6.952;2022-12-31T10:32:19;18.40;54.70
67974;DHT22;54756;51.140;6.952;2022-12-31T10:34:30;18.40;55.50
67974;DHT22;54756;51.140;6.952;2022-12-31T10:43:43;18.40;55.00
67974;DHT22;54756;51.140;6.952;2022-12-31T10:48:28;18.50;55.80
67974;DHT22;54756;51.140;6.952;2022-12-31T11:03:49;18.50;54.90
67974;DHT22;54756;51.140;6.952;2022-12-31T11:18:05;18.50;54.60
67974;DHT22;54756;51.140;6.952;2022-12-31T11:20:39;18.50;54.00
67974;DHT22;54756;51.140;6.952;2022-12-31T11:23:24;18.60;54.00
67974;DHT22;54756;51.140;6.952;2022-12-31T11:28:01;18.60;53.90
67974;DHT22;54756;51.140;6.952;2022-12-31T11:39:43;18.40;53.70
67974;DHT22;54756;51.140;6.952;2022-12-31T11:41:49;18.30;53.80
67974;DHT22;54756;51.140;6.952;2022-12-31T11:46:02;18.20;53.50
67974;DHT22;54756;51.140;6.952;2022-12-31T11:55:52;18.10;53.50
67974;DHT22;54756;51.140;6.952;2022-12-31T11:57:58;18.10;53.00
67974;DHT22;54756;51.140;6.952;2022-12-31T12:02:44;18.20;53.70
67974;DHT22;54756;51.140;6.952;2022-12-31T12:04:47;18.20;53.30
67974;DHT22;54756;51.140;6.952;2022-12-31T12:06:49;18.20;53.60
67974;DHT22;54756;51.140;6.952;2022-12-31T12:08:58;18.20;53.60
67974;DHT22;54756;51.140;6.952;2022-12-31T12:11:09;18.20;53.20
67974;DHT22;54756;51.140;6.952;2022-12-31T12:15:24;18.20;52.80
67974;DHT22;54756;51.140;6.952;2022-12-31T12:17:28;18.20;52.30
67974;DHT22;54756;51.140;6.952;2022-12-31T12:19:33;18.20;53.50
67974;DHT22;54756;51.140;6.952;2022-12-31T12:21:47;18.10;53.30
67974;DHT22;54756;51.140;6.952;2022-12-31T12:23:56;18.10;53.00
67974;DHT22;54756;51.140;6.952;2022-12-31T12:25:56;18.10;53.50
67974;DHT22;54756;51.140;6.952;2022-12-31T12:27:57;18.10;53.20
67974;DHT22;54756;51.140;6.952;2022-12-31T12:30:10;18.10;53.00
67974;DHT22;54756;51.140;6.952;2022-12-31T12:32:20;18.10;52.70
67974;DHT22;54756;51.140;6.952;2022-12-31T12:34:26;18.10;52.20
67974;DHT22;54756;51.140;6.952;2022-12-31T12:36:26;18.10;51.80
67974;DHT22;54756;51.140;6.952;2022-12-31T12:38:27;18.20;51.90
67974;DHT22;54756;51.140;6.952;2022-12-31T12:40:29;18.20;50.80
67974;DHT22;54756;51.140;6.952;2022-12-31T12:42:30;18.30;50.80
67974;DHT22;54756;51.140;6.952;2022-12-31T12:44:31;18.30;50.20
67974;DHT22;54756;51.140;6.952;2022-12-31T12:46:43;18.10;51.20
67974;DHT22;54756;51.140;6.952;2022-12-31T12:48:47;18.00;51.20
67974;DHT22;54756;51.140;6.952;2022-12-31T12:50:48;18.00;50.20
67974;DHT22;54756;51.140;6.952;2022-12-31T12:52:59;18.10;50.80
67974;DHT22;54756;51.140;6.952;2022-12-31T12:55:32;18.20;49.60
67974;DHT22;54756;51.140;6.952;2022-12-31T13:06:57;17.60;52.20
67974;DHT22;54756;51.140;6.952;2022-12-31T13:13:51;17.80;51.50
67974;DHT22;54756;51.140;6.952;2022-12-31T13:18:06;18.10;49.70
67974;DHT22;54756;51.140;6.952;2022-12-31T13:27:13;17.20;59.50
67974;DHT22;54756;51.140;6.952;2022-12-31T13:29:21;16.90;60.30
67974;DHT22;54756;51.140;6.952;2022-12-31T13:31:30;16.70;62.80
67974;DHT22;54756;51.140;6.952;2022-12-31T13:33:36;16.50;63.00
67974;DHT22;54756;51.140;6.952;2022-12-31T13:35:51;16.70;64.10
67974;DHT22;54756;51.140;6.952;2022-12-31T13:37:59;16.60;68.00
67974;DHT22;54756;51.140;6.952;2022-12-31T13:40:06;16.30;68.80
67974;DHT22;54756;51.140;6.952;2022-12-31T13:42:21;16.10;69.30
67974;DHT22;54756;51.140;6.952;2022-12-31T13:44:54;15.80;72.20
67974;DHT22;54756;51.140;6.952;2022-12-31T13:47:00;15.70;75.00
67974;DHT22;54756;51.140;6.952;2022-12-31T13:49:09;15.50;77.60
67974;DHT22;54756;51.140;6.952;2022-12-31T13:53:42;15.30;82.20
67974;DHT22;54756;51.140;6.952;2022-12-31T13:55:50;15.20;84.60
67974;DHT22;54756;51.140;6.952;2022-12-31T13:58:04;15.10;85.50
67974;DHT22;54756;51.140;6.952;2022-12-31T14:04:47;14.70;88.40
67974;DHT22;54756;51.140;6.952;2022-12-31T14:07:15;14.70;89.00
67974;DHT22;54756;51.140;6.952;2022-12-31T14:09:34;14.70;89.60
67974;DHT22;54756;51.140;6.952;2022-12-31T14:19:05;15.00;88.70
67974;DHT22;54756;51.140;6.952;2022-12-31T14:21:10;15.10;88.20
67974;DHT22;54756;51.140;6.952;2022-12-31T14:25:58;15.40;86.40
67974;DHT22;54756;51.140;6.952;2022-12-31T14:28:02;15.50;85.90
67974;DHT22;54756;51.140;6.952;2022-12-31T14:37:22;15.50;84.70
67974;DHT22;54756;51.140;6.952;2022-12-31T14:46:12;15.50;84.50
67974;DHT22;54756;51.140;6.952;2022-12-31T14:48:28;15.50;84.80
67974;DHT22;54756;51.140;6.952;2022-12-31T14:50:32;15.40;85.10
67974;DHT22;54756;51.140;6.952;2022-12-31T14:52:47;15.40;85.10
67974;DHT22;54756;51.140;6.952;2022-12-31T14:55:24;15.40;85.80
67974;DHT22;54756;51.140;6.952;2022-12-31T14:57:36;15.30;86.10
67974;DHT22;54756;51.140;6.952;2022-12-31T14:59:36;15.20;86.50
67974;DHT22;54756;51.140;6.952;2022-12-31T15:01:43;15.20;86.50
67974;DHT22;54756;51.140;6.952;2022-12-31T15:03:44;15.20;86.80
67974;DHT22;54756;51.140;6.952;2022-12-31T15:06:06;15.10;86.90
67974;DHT22;54756;51.140;6.952;2022-12-31T15:10:46;15.10;87.50
67974;DHT22;54756;51.140;6.952;2022-12-31T15:13:13;15.10;87.10
67974;DHT22;54756;51.140;6.952;2022-12-31T15:20:29;15.20;85.70
67974;DHT22;54756;51.140;6.952;2022-12-31T15:22:47;15.20;85.00
67974;DHT22;54756;51.140;6.952;2022-12-31T15:24:48;15.30;84.60
67974;DHT22;54756;51.140;6.952;2022-12-31T15:26:55;15.30;83.70
67974;DHT22;54756;51.140;6.952;2022-12-31T15:29:03;15.40;83.40
67974;DHT22;54756;51.140;6.952;2022-12-31T15:33:30;15.40;82.00
67974;DHT22;54756;51.140;6.952;2022-12-31T15:35:45;15.50;80.30
67974;DHT22;54756;51.140;6.952;2022-12-31T15:42:27;15.70;78.10
67974;DHT22;54756;51.140;6.952;2022-12-31T15:46:41;15.60;78.00
67974;DHT22;54756;51.140;6.952;2022-12-31T15:48:48;15.60;78.00
67974;DHT22;54756;51.140;6.952;2022-12-31T15:50:57;15.60;77.10
67974;DHT22;54756;51.140;6.952;2022-12-31T15:53:02;15.60;76.70
67974;DHT22;54756;51.140;6.952;2022-12-31T15:55:04;15.60;76.20
67974;DHT22;54756;51.140;6.952;2022-12-31T15:57:13;15.60;75.40
67974;DHT22;54756;51.140;6.952;2022-12-31T15:59:16;15.70;75.80
67974;DHT22;54756;51.140;6.952;2022-12-31T16:01:22;15.60;75.50
67974;DHT22;54756;51.140;6.952;2022-12-31T16:03:25;15.60;75.30
67974;DHT22;54756;51.140;6.952;2022-12-31T16:05:26;15.60;75.50
67974;DHT22;54756;51.140;6.952;2022-12-31T16:07:27;15.50;75.30
67974;DHT22;54756;51.140;6.952;2022-12-31T16:09:33;15.50;75.70
67974;DHT22;54756;51.140;6.952;2022-12-31T16:11:38;15.50;76.10
67974;DHT22;54756;51.140;6.952;2022-12-31T16:13:46;15.40;75.30
67974;DHT22;54756;51.140;6.952;2022-12-31T16:15:50;15.40;75.10
67974;DHT22;54756;51.140;6.952;2022-12-31T16:17:59;15.40;74.50
67974;DHT22;54756;51.140;6.952;2022-12-31T16:20:18;15.40;73.30
67974;DHT22;54756;51.140;6.952;2022-12-31T16:22:28;15.50;72.80
67974;DHT22;54756;51.140;6.952;2022-12-31T16:24:31;15.40;72.80
67974;DHT22;54756;51.140;6.952;2022-12-31T16:26:46;15.40;71.60
67974;DHT22;54756;51.140;6.952;2022-12-31T16:28:48;15.50;71.10
67974;DHT22;54756;51.140;6.952;2022-12-31T16:31:02;15.50;71.30
67974;DHT22;54756;51.140;6.952;2022-12-31T16:33:05;15.40;71.70
67974;DHT22;54756;51.140;6.952;2022-12-31T16:35:30;15.30;71.20
67974;DHT22;54756;51.140;6.952;2022-12-31T16:37:31;15.30;71.60
67974;DHT22;54756;51.140;6.952;2022-12-31T16:39:35;15.30;71.90
67974;DHT22;54756;51.140;6.952;2022-12-31T16:41:42;15.20;72.20
67974;DHT22;54756;51.140;6.952;2022-12-31T16:43:44;15.10;72.50
67974;DHT22;54756;51.140;6.952;2022-12-31T16:45:45;15.10;73.30
67974;DHT22;54756;51.140;6.952;2022-12-31T16:47:46;15.00;73.50
67974;DHT22;54756;51.140;6.952;2022-12-31T16:49:57;15.00;73.90
67974;DHT22;54756;51.140;6.952;2022-12-31T16:52:13;14.90;74.10
67974;DHT22;54756;51.140;6.952;2022-12-31T16:54:22;14.90;74.50
67974;DHT22;54756;51.140;6.952;2022-12-31T16:56:31;14.90;74.70
67974;DHT22;54756;51.140;6.952;2022-12-31T16:58:38;14.90;74.80
67974;DHT22;54756;51.140;6.952;2022-12-31T17:00:40;14.80;74.70
67974;DHT22;54756;51.140;6.952;2022-12-31T17:02:45;14.80;75.00
67974;DHT22;54756;51.140;6.952;2022-12-31T17:04:51;14.80;75.00
67974;DHT22;54756;51.140;6.952;2022-12-31T17:06:52;14.80;74.90